Accueil
METAR-TAF:

METAR-TAF

Aéroports :

Marham, Angleterre

latitude: 52-39N, longitude: 000-34E, altitude: 23 m

Observation

Le bulletin a été fait il y a 14 minutes, à 07:50 UTC
Vent 14 kt de nord
Température 15°C
Humidité 77%
Pression 1016 hPa
Visibilité 10 km ou plus
Quelques nuages à une hauteur de 1200 ft
Nuages épars à une hauteur de 25000 ft

METAR: EGYM 220750Z 35014KT 9999 FEW012 SCT250 15/11 Q1016 BLU NOSIG

Heure: 09:04 (08:04 UTC)

Prévision

Le bulletin a été fait il y a 3 heures et 28 minutes, à 04:36 UTC
Prévision valable du 22 à 06 UTC au 22 à 15 UTC
Vent 15 kt de nord
Visibilité 10 km ou plus
pas de nuages en-dessous de 1500 mètres et pas de cumulonimbus.
Probabilité 30%
du 22 à 06 UTC au 22 à 07 UTC
Visibilité: 6000 m
brume sèche

TAF: EGYM 220436Z 2206/2215 36015KT CAVOK PROB30 2206/2207 6000 HZ

Observations et prévisions météorologiques de plus de 4000 aéroports (messages METAR et TAF).

Les stations disponibles sont représentées par des disques jaunes et rouges sur la carte.

Passer la souris dessus pour voir le nom de la station.

Cliquer dessus pour voir les observations et prévisions météorologiques.

Pour changer de carte: cliquez sur les boutons verts avec une croix noire pour zoomer, sur le bouton vert avec un tiret pour effectuer un zoom arrière, ou sur les flèches vertes pour les cartes adjacentes.


METAR-TAF: